Terminal Aerodrome Forecast
Issued by NWS

Home | Current Version | Previous Version | Text Only | Print | Product List | Glossary On
Versions: 1 2 3 4 5 6 7 8 9 10 11 12 13 14 15
290
FTUS43 KLSX 162327
TAFSUS
TAF
KSUS 162327Z 1700/1724 29006KT P6SM BKN025
      TEMPO 1700/1704 BKN018
     FM170500 29004KT P6SM SCT020
     FM171200 VRB03KT P6SM FEW250
     FM171800 26007KT P6SM SKC=

USA.gov is the U.S. government's official web portal to all federal, state and local government web resources and services.